sensor_id;sensor_type;location;lat;lon;timestamp;P1;durP1;ratioP1;P2;durP2;ratioP2
73850;SDS011;62190;51.548;5.688;2023-04-28T00:00:50;15.05;;;9.13;;
73850;SDS011;62190;51.548;5.688;2023-04-28T00:03:18;15.35;;;8.90;;
73850;SDS011;62190;51.548;5.688;2023-04-28T00:05:45;14.00;;;8.70;;
73850;SDS011;62190;51.548;5.688;2023-04-28T00:08:15;12.10;;;8.38;;
73850;SDS011;62190;51.548;5.688;2023-04-28T00:10:48;13.83;;;8.33;;
73850;SDS011;62190;51.548;5.688;2023-04-28T00:13:15;16.30;;;9.38;;
73850;SDS011;62190;51.548;5.688;2023-04-28T00:15:42;15.20;;;8.80;;
73850;SDS011;62190;51.548;5.688;2023-04-28T00:18:13;15.00;;;9.43;;
73850;SDS011;62190;51.548;5.688;2023-04-28T00:20:40;14.63;;;8.98;;
73850;SDS011;62190;51.548;5.688;2023-04-28T00:23:09;15.30;;;8.70;;
73850;SDS011;62190;51.548;5.688;2023-04-28T00:25:36;19.15;;;9.43;;
73850;SDS011;62190;51.548;5.688;2023-04-28T00:28:03;14.98;;;9.33;;
73850;SDS011;62190;51.548;5.688;2023-04-28T00:30:31;17.55;;;9.38;;
73850;SDS011;62190;51.548;5.688;2023-04-28T00:32:58;19.80;;;9.40;;
73850;SDS011;62190;51.548;5.688;2023-04-28T00:35:25;20.32;;;10.13;;
73850;SDS011;62190;51.548;5.688;2023-04-28T00:37:52;18.80;;;9.73;;
73850;SDS011;62190;51.548;5.688;2023-04-28T00:40:20;17.27;;;9.83;;
73850;SDS011;62190;51.548;5.688;2023-04-28T00:42:47;16.62;;;10.00;;
73850;SDS011;62190;51.548;5.688;2023-04-28T00:45:14;16.80;;;10.35;;
73850;SDS011;62190;51.548;5.688;2023-04-28T00:47:42;17.42;;;10.03;;
73850;SDS011;62190;51.548;5.688;2023-04-28T00:50:09;17.30;;;10.38;;
73850;SDS011;62190;51.548;5.688;2023-04-28T00:52:37;24.12;;;10.78;;
73850;SDS011;62190;51.548;5.688;2023-04-28T00:55:05;23.47;;;12.30;;
73850;SDS011;62190;51.548;5.688;2023-04-28T00:57:33;20.97;;;12.47;;
73850;SDS011;62190;51.548;5.688;2023-04-28T01:00:05;21.15;;;12.10;;
73850;SDS011;62190;51.548;5.688;2023-04-28T01:02:35;22.90;;;12.47;;
73850;SDS011;62190;51.548;5.688;2023-04-28T01:05:03;22.45;;;13.00;;
73850;SDS011;62190;51.548;5.688;2023-04-28T01:07:31;24.92;;;12.58;;
73850;SDS011;62190;51.548;5.688;2023-04-28T01:09:59;22.32;;;13.05;;
73850;SDS011;62190;51.548;5.688;2023-04-28T01:12:26;21.00;;;11.60;;
73850;SDS011;62190;51.548;5.688;2023-04-28T01:14:55;21.17;;;12.05;;
73850;SDS011;62190;51.548;5.688;2023-04-28T01:17:22;21.87;;;10.78;;
73850;SDS011;62190;51.548;5.688;2023-04-28T01:19:50;20.00;;;11.35;;
73850;SDS011;62190;51.548;5.688;2023-04-28T01:22:19;18.52;;;12.07;;
73850;SDS011;62190;51.548;5.688;2023-04-28T01:24:46;20.75;;;11.25;;
73850;SDS011;62190;51.548;5.688;2023-04-28T01:27:13;23.15;;;12.00;;
73850;SDS011;62190;51.548;5.688;2023-04-28T01:29:41;20.75;;;12.05;;
73850;SDS011;62190;51.548;5.688;2023-04-28T01:32:10;25.35;;;13.13;;
73850;SDS011;62190;51.548;5.688;2023-04-28T01:34:37;23.87;;;12.23;;
73850;SDS011;62190;51.548;5.688;2023-04-28T01:37:07;22.15;;;12.82;;
73850;SDS011;62190;51.548;5.688;2023-04-28T01:39:34;23.92;;;12.28;;
73850;SDS011;62190;51.548;5.688;2023-04-28T01:42:03;23.12;;;12.13;;
73850;SDS011;62190;51.548;5.688;2023-04-28T01:44:31;21.57;;;12.13;;
73850;SDS011;62190;51.548;5.688;2023-04-28T01:46:58;28.83;;;13.43;;
73850;SDS011;62190;51.548;5.688;2023-04-28T01:49:25;23.92;;;11.78;;
73850;SDS011;62190;51.548;5.688;2023-04-28T01:51:53;24.07;;;12.60;;
73850;SDS011;62190;51.548;5.688;2023-04-28T01:54:20;26.00;;;14.00;;
73850;SDS011;62190;51.548;5.688;2023-04-28T01:56:47;27.32;;;13.60;;
73850;SDS011;62190;51.548;5.688;2023-04-28T01:59:16;21.80;;;12.68;;
73850;SDS011;62190;51.548;5.688;2023-04-28T02:01:45;26.37;;;13.13;;
73850;SDS011;62190;51.548;5.688;2023-04-28T02:04:12;24.63;;;13.20;;
73850;SDS011;62190;51.548;5.688;2023-04-28T02:06:41;27.67;;;13.68;;
73850;SDS011;62190;51.548;5.688;2023-04-28T02:09:08;26.80;;;13.88;;
73850;SDS011;62190;51.548;5.688;2023-04-28T02:11:36;27.42;;;13.45;;
73850;SDS011;62190;51.548;5.688;2023-04-28T02:14:05;27.67;;;14.83;;
73850;SDS011;62190;51.548;5.688;2023-04-28T02:16:32;26.68;;;13.68;;
73850;SDS011;62190;51.548;5.688;2023-04-28T02:19:01;27.17;;;14.58;;
73850;SDS011;62190;51.548;5.688;2023-04-28T02:21:29;29.63;;;15.13;;
73850;SDS011;62190;51.548;5.688;2023-04-28T02:23:57;26.60;;;14.87;;
73850;SDS011;62190;51.548;5.688;2023-04-28T02:26:26;30.50;;;16.40;;
73850;SDS011;62190;51.548;5.688;2023-04-28T02:28:54;30.72;;;15.98;;
73850;SDS011;62190;51.548;5.688;2023-04-28T02:31:21;31.50;;;16.90;;
73850;SDS011;62190;51.548;5.688;2023-04-28T02:33:48;30.62;;;16.27;;
73850;SDS011;62190;51.548;5.688;2023-04-28T02:36:15;29.67;;;15.65;;
73850;SDS011;62190;51.548;5.688;2023-04-28T02:38:43;34.15;;;16.73;;
73850;SDS011;62190;51.548;5.688;2023-04-28T02:41:10;32.08;;;16.23;;
73850;SDS011;62190;51.548;5.688;2023-04-28T02:43:39;33.80;;;17.75;;
73850;SDS011;62190;51.548;5.688;2023-04-28T02:46:07;36.73;;;18.62;;
73850;SDS011;62190;51.548;5.688;2023-04-28T02:48:36;35.05;;;18.00;;
73850;SDS011;62190;51.548;5.688;2023-04-28T02:51:03;35.75;;;16.90;;
73850;SDS011;62190;51.548;5.688;2023-04-28T02:53:31;32.28;;;16.17;;
73850;SDS011;62190;51.548;5.688;2023-04-28T02:55:58;33.75;;;18.82;;
73850;SDS011;62190;51.548;5.688;2023-04-28T02:58:26;32.85;;;16.97;;
73850;SDS011;62190;51.548;5.688;2023-04-28T03:00:54;34.50;;;17.98;;
73850;SDS011;62190;51.548;5.688;2023-04-28T03:03:21;36.10;;;17.65;;
73850;SDS011;62190;51.548;5.688;2023-04-28T03:05:48;35.55;;;18.42;;
73850;SDS011;62190;51.548;5.688;2023-04-28T03:08:16;37.00;;;18.32;;
73850;SDS011;62190;51.548;5.688;2023-04-28T03:10:45;33.53;;;19.05;;
73850;SDS011;62190;51.548;5.688;2023-04-28T03:13:12;33.50;;;19.30;;
73850;SDS011;62190;51.548;5.688;2023-04-28T03:15:39;30.02;;;17.12;;
73850;SDS011;62190;51.548;5.688;2023-04-28T03:18:08;32.35;;;19.65;;
73850;SDS011;62190;51.548;5.688;2023-04-28T03:20:35;36.58;;;19.77;;
73850;SDS011;62190;51.548;5.688;2023-04-28T03:23:03;34.38;;;19.15;;
73850;SDS011;62190;51.548;5.688;2023-04-28T03:25:32;33.63;;;19.12;;
73850;SDS011;62190;51.548;5.688;2023-04-28T03:28:03;34.78;;;20.12;;
73850;SDS011;62190;51.548;5.688;2023-04-28T03:30:30;37.35;;;21.05;;
73850;SDS011;62190;51.548;5.688;2023-04-28T03:33:00;40.78;;;21.95;;
73850;SDS011;62190;51.548;5.688;2023-04-28T03:35:27;43.52;;;23.40;;
73850;SDS011;62190;51.548;5.688;2023-04-28T03:37:56;47.98;;;22.82;;
73850;SDS011;62190;51.548;5.688;2023-04-28T03:40:23;39.10;;;22.05;;
73850;SDS011;62190;51.548;5.688;2023-04-28T03:42:52;45.50;;;23.57;;
73850;SDS011;62190;51.548;5.688;2023-04-28T03:45:21;47.73;;;24.55;;
73850;SDS011;62190;51.548;5.688;2023-04-28T03:47:48;52.10;;;24.90;;
73850;SDS011;62190;51.548;5.688;2023-04-28T03:50:16;47.62;;;24.50;;
73850;SDS011;62190;51.548;5.688;2023-04-28T03:52:45;44.03;;;26.55;;
73850;SDS011;62190;51.548;5.688;2023-04-28T03:55:12;42.58;;;23.67;;
73850;SDS011;62190;51.548;5.688;2023-04-28T03:57:39;40.67;;;23.15;;
73850;SDS011;62190;51.548;5.688;2023-04-28T04:00:07;43.50;;;24.90;;
73850;SDS011;62190;51.548;5.688;2023-04-28T04:02:35;40.40;;;22.90;;
73850;SDS011;62190;51.548;5.688;2023-04-28T04:05:06;42.30;;;24.60;;
73850;SDS011;62190;51.548;5.688;2023-04-28T04:07:33;43.10;;;24.65;;
73850;SDS011;62190;51.548;5.688;2023-04-28T04:10:00;45.95;;;24.92;;
73850;SDS011;62190;51.548;5.688;2023-04-28T04:12:28;42.08;;;24.57;;
73850;SDS011;62190;51.548;5.688;2023-04-28T04:14:56;44.93;;;26.25;;
73850;SDS011;62190;51.548;5.688;2023-04-28T04:17:27;44.25;;;25.30;;
73850;SDS011;62190;51.548;5.688;2023-04-28T04:19:53;40.10;;;23.95;;
73850;SDS011;62190;51.548;5.688;2023-04-28T04:22:22;40.28;;;22.87;;
73850;SDS011;62190;51.548;5.688;2023-04-28T04:24:50;37.85;;;22.27;;
73850;SDS011;62190;51.548;5.688;2023-04-28T04:27:19;46.58;;;25.55;;
73850;SDS011;62190;51.548;5.688;2023-04-28T04:29:48;36.48;;;23.87;;
73850;SDS011;62190;51.548;5.688;2023-04-28T04:32:15;41.13;;;25.30;;
73850;SDS011;62190;51.548;5.688;2023-04-28T04:34:43;48.70;;;26.90;;
73850;SDS011;62190;51.548;5.688;2023-04-28T04:37:10;53.13;;;27.50;;
73850;SDS011;62190;51.548;5.688;2023-04-28T04:39:38;48.25;;;27.42;;
73850;SDS011;62190;51.548;5.688;2023-04-28T04:42:06;44.33;;;25.02;;
73850;SDS011;62190;51.548;5.688;2023-04-28T04:44:34;42.70;;;26.87;;
73850;SDS011;62190;51.548;5.688;2023-04-28T04:47:02;43.50;;;25.45;;
73850;SDS011;62190;51.548;5.688;2023-04-28T04:49:29;41.65;;;25.10;;
73850;SDS011;62190;51.548;5.688;2023-04-28T04:51:58;41.13;;;23.45;;
73850;SDS011;62190;51.548;5.688;2023-04-28T04:54:28;37.98;;;23.27;;
73850;SDS011;62190;51.548;5.688;2023-04-28T04:56:56;37.30;;;23.35;;
73850;SDS011;62190;51.548;5.688;2023-04-28T04:59:24;38.58;;;23.85;;
73850;SDS011;62190;51.548;5.688;2023-04-28T05:01:54;37.85;;;23.47;;
73850;SDS011;62190;51.548;5.688;2023-04-28T05:04:21;38.10;;;24.55;;
73850;SDS011;62190;51.548;5.688;2023-04-28T05:06:50;38.55;;;24.47;;
73850;SDS011;62190;51.548;5.688;2023-04-28T05:09:18;35.52;;;23.52;;
73850;SDS011;62190;51.548;5.688;2023-04-28T05:11:45;37.98;;;23.70;;
73850;SDS011;62190;51.548;5.688;2023-04-28T05:14:13;34.27;;;22.95;;
73850;SDS011;62190;51.548;5.688;2023-04-28T05:16:41;37.42;;;22.67;;
73850;SDS011;62190;51.548;5.688;2023-04-28T05:19:09;39.38;;;24.52;;
73850;SDS011;62190;51.548;5.688;2023-04-28T05:21:38;35.80;;;23.45;;
73850;SDS011;62190;51.548;5.688;2023-04-28T05:24:07;39.25;;;25.20;;
73850;SDS011;62190;51.548;5.688;2023-04-28T05:26:34;40.38;;;24.50;;
73850;SDS011;62190;51.548;5.688;2023-04-28T05:29:02;39.53;;;23.57;;
73850;SDS011;62190;51.548;5.688;2023-04-28T05:31:29;37.85;;;22.98;;
73850;SDS011;62190;51.548;5.688;2023-04-28T05:33:58;34.18;;;22.35;;
73850;SDS011;62190;51.548;5.688;2023-04-28T05:36:25;39.78;;;25.35;;
73850;SDS011;62190;51.548;5.688;2023-04-28T05:38:53;38.80;;;24.25;;
73850;SDS011;62190;51.548;5.688;2023-04-28T05:41:20;38.53;;;23.32;;
73850;SDS011;62190;51.548;5.688;2023-04-28T05:43:49;37.05;;;23.70;;
73850;SDS011;62190;51.548;5.688;2023-04-28T05:46:17;31.48;;;20.65;;
73850;SDS011;62190;51.548;5.688;2023-04-28T05:48:45;33.70;;;22.10;;
73850;SDS011;62190;51.548;5.688;2023-04-28T05:51:12;32.03;;;20.32;;
73850;SDS011;62190;51.548;5.688;2023-04-28T05:53:39;33.00;;;20.88;;
73850;SDS011;62190;51.548;5.688;2023-04-28T05:56:07;32.10;;;20.82;;
73850;SDS011;62190;51.548;5.688;2023-04-28T05:58:35;31.07;;;20.80;;
73850;SDS011;62190;51.548;5.688;2023-04-28T06:01:03;32.63;;;21.97;;
73850;SDS011;62190;51.548;5.688;2023-04-28T06:03:31;33.23;;;21.27;;
73850;SDS011;62190;51.548;5.688;2023-04-28T06:05:58;31.05;;;20.77;;
73850;SDS011;62190;51.548;5.688;2023-04-28T06:08:27;38.67;;;21.60;;
73850;SDS011;62190;51.548;5.688;2023-04-28T06:10:54;35.92;;;21.30;;
73850;SDS011;62190;51.548;5.688;2023-04-28T06:13:21;33.50;;;21.80;;
73850;SDS011;62190;51.548;5.688;2023-04-28T06:15:49;28.92;;;19.70;;
73850;SDS011;62190;51.548;5.688;2023-04-28T06:18:16;30.90;;;19.98;;
73850;SDS011;62190;51.548;5.688;2023-04-28T06:20:45;28.05;;;19.52;;
73850;SDS011;62190;51.548;5.688;2023-04-28T06:23:12;28.00;;;18.57;;
73850;SDS011;62190;51.548;5.688;2023-04-28T06:25:40;26.17;;;18.48;;
73850;SDS011;62190;51.548;5.688;2023-04-28T06:28:07;24.37;;;17.60;;
73850;SDS011;62190;51.548;5.688;2023-04-28T06:30:34;27.73;;;19.10;;
73850;SDS011;62190;51.548;5.688;2023-04-28T06:33:02;24.02;;;17.85;;
73850;SDS011;62190;51.548;5.688;2023-04-28T06:35:29;23.10;;;17.02;;
73850;SDS011;62190;51.548;5.688;2023-04-28T06:37:58;24.65;;;16.85;;
73850;SDS011;62190;51.548;5.688;2023-04-28T06:40:27;22.87;;;16.62;;
73850;SDS011;62190;51.548;5.688;2023-04-28T06:42:54;26.82;;;18.90;;
73850;SDS011;62190;51.548;5.688;2023-04-28T06:45:21;27.32;;;17.52;;
73850;SDS011;62190;51.548;5.688;2023-04-28T06:47:49;26.55;;;17.55;;
73850;SDS011;62190;51.548;5.688;2023-04-28T06:50:16;27.58;;;17.40;;
73850;SDS011;62190;51.548;5.688;2023-04-28T06:52:44;22.42;;;15.98;;
73850;SDS011;62190;51.548;5.688;2023-04-28T06:55:15;22.73;;;16.77;;
73850;SDS011;62190;51.548;5.688;2023-04-28T06:57:41;22.10;;;16.55;;
73850;SDS011;62190;51.548;5.688;2023-04-28T07:00:09;22.40;;;16.17;;
73850;SDS011;62190;51.548;5.688;2023-04-28T07:02:37;20.23;;;14.70;;
73850;SDS011;62190;51.548;5.688;2023-04-28T07:05:04;21.00;;;13.90;;
73850;SDS011;62190;51.548;5.688;2023-04-28T07:07:32;22.80;;;15.40;;
73850;SDS011;62190;51.548;5.688;2023-04-28T07:09:59;19.15;;;13.85;;
73850;SDS011;62190;51.548;5.688;2023-04-28T07:12:27;22.10;;;14.63;;
73850;SDS011;62190;51.548;5.688;2023-04-28T07:14:54;20.82;;;14.30;;
73850;SDS011;62190;51.548;5.688;2023-04-28T07:17:21;18.07;;;13.00;;
73850;SDS011;62190;51.548;5.688;2023-04-28T07:19:49;20.17;;;14.73;;
73850;SDS011;62190;51.548;5.688;2023-04-28T07:22:16;15.58;;;11.53;;
73850;SDS011;62190;51.548;5.688;2023-04-28T07:24:43;18.00;;;13.15;;
73850;SDS011;62190;51.548;5.688;2023-04-28T07:27:11;20.43;;;12.93;;
73850;SDS011;62190;51.548;5.688;2023-04-28T07:29:38;18.20;;;13.22;;
73850;SDS011;62190;51.548;5.688;2023-04-28T07:32:06;18.25;;;13.05;;
73850;SDS011;62190;51.548;5.688;2023-04-28T07:34:35;22.10;;;14.20;;
73850;SDS011;62190;51.548;5.688;2023-04-28T07:37:02;17.37;;;12.13;;
73850;SDS011;62190;51.548;5.688;2023-04-28T07:39:30;18.10;;;11.63;;
73850;SDS011;62190;51.548;5.688;2023-04-28T07:42:00;16.82;;;11.55;;
73850;SDS011;62190;51.548;5.688;2023-04-28T07:44:28;14.90;;;10.53;;
73850;SDS011;62190;51.548;5.688;2023-04-28T07:46:57;15.38;;;11.10;;
73850;SDS011;62190;51.548;5.688;2023-04-28T07:49:26;18.00;;;11.60;;
73850;SDS011;62190;51.548;5.688;2023-04-28T07:51:57;15.58;;;10.28;;
73850;SDS011;62190;51.548;5.688;2023-04-28T07:54:24;13.45;;;9.93;;
73850;SDS011;62190;51.548;5.688;2023-04-28T07:56:51;14.85;;;10.23;;
73850;SDS011;62190;51.548;5.688;2023-04-28T07:59:19;11.48;;;9.48;;
73850;SDS011;62190;51.548;5.688;2023-04-28T08:01:46;16.35;;;10.48;;
73850;SDS011;62190;51.548;5.688;2023-04-28T08:04:13;11.35;;;9.58;;
73850;SDS011;62190;51.548;5.688;2023-04-28T08:06:41;15.48;;;10.95;;
73850;SDS011;62190;51.548;5.688;2023-04-28T08:09:08;14.00;;;10.13;;
73850;SDS011;62190;51.548;5.688;2023-04-28T08:11:35;15.10;;;11.03;;
73850;SDS011;62190;51.548;5.688;2023-04-28T08:14:03;16.02;;;10.75;;
73850;SDS011;62190;51.548;5.688;2023-04-28T08:16:30;13.58;;;11.10;;
73850;SDS011;62190;51.548;5.688;2023-04-28T08:18:59;13.78;;;11.03;;
73850;SDS011;62190;51.548;5.688;2023-04-28T08:21:26;15.72;;;12.07;;
73850;SDS011;62190;51.548;5.688;2023-04-28T08:23:53;16.50;;;13.05;;
73850;SDS011;62190;51.548;5.688;2023-04-28T08:28:50;16.10;;;13.60;;
73850;SDS011;62190;51.548;5.688;2023-04-28T08:31:18;17.48;;;12.95;;
73850;SDS011;62190;51.548;5.688;2023-04-28T08:33:45;19.10;;;13.93;;
73850;SDS011;62190;51.548;5.688;2023-04-28T08:36:14;17.12;;;14.03;;
73850;SDS011;62190;51.548;5.688;2023-04-28T08:38:43;17.95;;;14.87;;
73850;SDS011;62190;51.548;5.688;2023-04-28T08:41:15;19.57;;;14.53;;
73850;SDS011;62190;51.548;5.688;2023-04-28T08:43:40;24.37;;;15.58;;
73850;SDS011;62190;51.548;5.688;2023-04-28T08:46:08;20.97;;;15.78;;
73850;SDS011;62190;51.548;5.688;2023-04-28T08:48:39;20.05;;;15.65;;
73850;SDS011;62190;51.548;5.688;2023-04-28T08:51:08;20.70;;;15.50;;
73850;SDS011;62190;51.548;5.688;2023-04-28T08:53:36;20.17;;;15.70;;
73850;SDS011;62190;51.548;5.688;2023-04-28T08:56:05;22.13;;;15.68;;
73850;SDS011;62190;51.548;5.688;2023-04-28T08:58:34;18.98;;;14.90;;
73850;SDS011;62190;51.548;5.688;2023-04-28T09:01:04;19.15;;;15.70;;
73850;SDS011;62190;51.548;5.688;2023-04-28T09:03:31;21.30;;;16.27;;
73850;SDS011;62190;51.548;5.688;2023-04-28T09:06:00;18.62;;;16.27;;
73850;SDS011;62190;51.548;5.688;2023-04-28T09:08:27;18.25;;;15.38;;
73850;SDS011;62190;51.548;5.688;2023-04-28T09:13:37;17.27;;;14.07;;
73850;SDS011;62190;51.548;5.688;2023-04-28T09:16:07;19.23;;;14.78;;
73850;SDS011;62190;51.548;5.688;2023-04-28T09:18:34;18.95;;;15.48;;
73850;SDS011;62190;51.548;5.688;2023-04-28T09:21:08;19.17;;;15.23;;
73850;SDS011;62190;51.548;5.688;2023-04-28T09:23:45;20.37;;;15.78;;
73850;SDS011;62190;51.548;5.688;2023-04-28T09:26:13;20.72;;;15.48;;
73850;SDS011;62190;51.548;5.688;2023-04-28T09:28:41;18.10;;;14.47;;
73850;SDS011;62190;51.548;5.688;2023-04-28T09:31:23;18.82;;;14.55;;
73850;SDS011;62190;51.548;5.688;2023-04-28T09:33:57;19.90;;;14.75;;
73850;SDS011;62190;51.548;5.688;2023-04-28T09:36:25;18.37;;;14.65;;
73850;SDS011;62190;51.548;5.688;2023-04-28T09:38:59;18.65;;;13.53;;
73850;SDS011;62190;51.548;5.688;2023-04-28T09:41:35;18.98;;;13.70;;
73850;SDS011;62190;51.548;5.688;2023-04-28T09:46:46;16.15;;;13.40;;
73850;SDS011;62190;51.548;5.688;2023-04-28T09:49:13;17.98;;;13.80;;
73850;SDS011;62190;51.548;5.688;2023-04-28T09:51:40;16.60;;;13.70;;
73850;SDS011;62190;51.548;5.688;2023-04-28T09:54:08;20.37;;;14.13;;
73850;SDS011;62190;51.548;5.688;2023-04-28T09:56:36;19.05;;;13.10;;
73850;SDS011;62190;51.548;5.688;2023-04-28T09:59:03;15.38;;;11.48;;
73850;SDS011;62190;51.548;5.688;2023-04-28T10:01:32;14.25;;;11.60;;
73850;SDS011;62190;51.548;5.688;2023-04-28T10:04:07;16.35;;;11.30;;
73850;SDS011;62190;51.548;5.688;2023-04-28T10:06:36;16.55;;;11.88;;
73850;SDS011;62190;51.548;5.688;2023-04-28T10:09:04;18.95;;;12.43;;
73850;SDS011;62190;51.548;5.688;2023-04-28T10:11:31;16.02;;;12.23;;
73850;SDS011;62190;51.548;5.688;2023-04-28T10:13:59;16.52;;;11.60;;
73850;SDS011;62190;51.548;5.688;2023-04-28T10:16:28;15.00;;;12.37;;
73850;SDS011;62190;51.548;5.688;2023-04-28T10:18:56;16.30;;;12.60;;
73850;SDS011;62190;51.548;5.688;2023-04-28T10:21:23;18.55;;;13.72;;
73850;SDS011;62190;51.548;5.688;2023-04-28T10:23:59;20.30;;;14.40;;
73850;SDS011;62190;51.548;5.688;2023-04-28T10:29:21;21.33;;;15.80;;
73850;SDS011;62190;51.548;5.688;2023-04-28T10:34:45;23.87;;;17.95;;
73850;SDS011;62190;51.548;5.688;2023-04-28T10:37:13;23.75;;;18.80;;
73850;SDS011;62190;51.548;5.688;2023-04-28T10:42:51;29.30;;;20.43;;
73850;SDS011;62190;51.548;5.688;2023-04-28T10:48:21;33.00;;;24.00;;
73850;SDS011;62190;51.548;5.688;2023-04-28T10:56:23;34.95;;;24.82;;
73850;SDS011;62190;51.548;5.688;2023-04-28T10:58:55;33.98;;;23.30;;
73850;SDS011;62190;51.548;5.688;2023-04-28T11:01:24;35.23;;;25.75;;
73850;SDS011;62190;51.548;5.688;2023-04-28T11:04:00;34.27;;;23.62;;
73850;SDS011;62190;51.548;5.688;2023-04-28T11:06:42;33.30;;;22.93;;
73850;SDS011;62190;51.548;5.688;2023-04-28T11:19:44;22.93;;;18.42;;
73850;SDS011;62190;51.548;5.688;2023-04-28T11:22:18;23.62;;;18.87;;
73850;SDS011;62190;51.548;5.688;2023-04-28T11:24:54;23.02;;;17.20;;
73850;SDS011;62190;51.548;5.688;2023-04-28T11:27:24;20.55;;;16.35;;
73850;SDS011;62190;51.548;5.688;2023-04-28T11:29:52;21.95;;;16.93;;
73850;SDS011;62190;51.548;5.688;2023-04-28T11:32:26;18.73;;;15.43;;
73850;SDS011;62190;51.548;5.688;2023-04-28T11:34:54;19.23;;;16.42;;
73850;SDS011;62190;51.548;5.688;2023-04-28T11:37:21;17.23;;;15.10;;
73850;SDS011;62190;51.548;5.688;2023-04-28T11:39:48;20.15;;;14.85;;
73850;SDS011;62190;51.548;5.688;2023-04-28T11:42:16;17.62;;;14.53;;
73850;SDS011;62190;51.548;5.688;2023-04-28T11:44:52;16.55;;;13.68;;
73850;SDS011;62190;51.548;5.688;2023-04-28T11:47:27;15.23;;;13.65;;
73850;SDS011;62190;51.548;5.688;2023-04-28T11:49:58;13.78;;;12.43;;
73850;SDS011;62190;51.548;5.688;2023-04-28T11:52:27;14.73;;;13.22;;
73850;SDS011;62190;51.548;5.688;2023-04-28T11:54:55;16.32;;;13.98;;
73850;SDS011;62190;51.548;5.688;2023-04-28T11:57:24;14.70;;;12.90;;
73850;SDS011;62190;51.548;5.688;2023-04-28T11:59:52;15.48;;;13.88;;
73850;SDS011;62190;51.548;5.688;2023-04-28T12:02:25;16.20;;;14.40;;
73850;SDS011;62190;51.548;5.688;2023-04-28T12:04:53;19.62;;;14.30;;
73850;SDS011;62190;51.548;5.688;2023-04-28T12:07:21;18.05;;;15.38;;
73850;SDS011;62190;51.548;5.688;2023-04-28T12:12:40;17.32;;;15.48;;
73850;SDS011;62190;51.548;5.688;2023-04-28T12:15:08;17.75;;;15.32;;
73850;SDS011;62190;51.548;5.688;2023-04-28T12:17:36;17.73;;;14.93;;
73850;SDS011;62190;51.548;5.688;2023-04-28T12:20:05;19.25;;;15.78;;
73850;SDS011;62190;51.548;5.688;2023-04-28T12:22:49;21.10;;;16.85;;
73850;SDS011;62190;51.548;5.688;2023-04-28T12:25:18;21.40;;;17.20;;
73850;SDS011;62190;51.548;5.688;2023-04-28T12:28:02;21.50;;;18.95;;
73850;SDS011;62190;51.548;5.688;2023-04-28T12:30:31;22.17;;;18.00;;
73850;SDS011;62190;51.548;5.688;2023-04-28T12:32:59;29.63;;;24.00;;
73850;SDS011;62190;51.548;5.688;2023-04-28T12:35:30;22.42;;;19.00;;
73850;SDS011;62190;51.548;5.688;2023-04-28T12:37:59;26.25;;;21.60;;
73850;SDS011;62190;51.548;5.688;2023-04-28T12:40:26;22.00;;;19.00;;
73850;SDS011;62190;51.548;5.688;2023-04-28T12:42:53;22.62;;;18.85;;
73850;SDS011;62190;51.548;5.688;2023-04-28T12:45:21;21.50;;;17.92;;
73850;SDS011;62190;51.548;5.688;2023-04-28T12:47:48;25.05;;;19.73;;
73850;SDS011;62190;51.548;5.688;2023-04-28T12:50:16;22.58;;;17.77;;
73850;SDS011;62190;51.548;5.688;2023-04-28T12:52:43;24.52;;;18.65;;
73850;SDS011;62190;51.548;5.688;2023-04-28T12:55:11;23.98;;;19.40;;
73850;SDS011;62190;51.548;5.688;2023-04-28T12:57:38;29.45;;;21.70;;
73850;SDS011;62190;51.548;5.688;2023-04-28T13:00:07;26.23;;;21.17;;
73850;SDS011;62190;51.548;5.688;2023-04-28T13:02:38;18.15;;;14.47;;
73850;SDS011;62190;51.548;5.688;2023-04-28T13:05:05;19.45;;;15.10;;
73850;SDS011;62190;51.548;5.688;2023-04-28T13:07:33;18.67;;;14.18;;
73850;SDS011;62190;51.548;5.688;2023-04-28T13:10:01;16.23;;;12.98;;
73850;SDS011;62190;51.548;5.688;2023-04-28T13:12:28;16.50;;;13.00;;
73850;SDS011;62190;51.548;5.688;2023-04-28T13:14:57;14.28;;;11.05;;
73850;SDS011;62190;51.548;5.688;2023-04-28T13:17:25;8.80;;;6.75;;
73850;SDS011;62190;51.548;5.688;2023-04-28T13:19:52;8.93;;;7.10;;
73850;SDS011;62190;51.548;5.688;2023-04-28T13:22:20;7.00;;;4.17;;
73850;SDS011;62190;51.548;5.688;2023-04-28T13:24:47;6.05;;;3.65;;
73850;SDS011;62190;51.548;5.688;2023-04-28T13:27:15;5.50;;;3.92;;
73850;SDS011;62190;51.548;5.688;2023-04-28T13:29:43;6.08;;;4.67;;
73850;SDS011;62190;51.548;5.688;2023-04-28T13:32:10;10.05;;;6.83;;
73850;SDS011;62190;51.548;5.688;2023-04-28T13:34:37;11.57;;;7.87;;
73850;SDS011;62190;51.548;5.688;2023-04-28T13:37:05;10.43;;;7.47;;
73850;SDS011;62190;51.548;5.688;2023-04-28T13:39:32;12.23;;;8.83;;
73850;SDS011;62190;51.548;5.688;2023-04-28T13:41:59;10.32;;;7.75;;
73850;SDS011;62190;51.548;5.688;2023-04-28T13:44:27;11.70;;;8.40;;
73850;SDS011;62190;51.548;5.688;2023-04-28T13:46:54;10.45;;;7.42;;
73850;SDS011;62190;51.548;5.688;2023-04-28T13:49:22;11.15;;;7.40;;
73850;SDS011;62190;51.548;5.688;2023-04-28T13:51:49;8.28;;;6.58;;
73850;SDS011;62190;51.548;5.688;2023-04-28T13:54:17;9.00;;;6.78;;
73850;SDS011;62190;51.548;5.688;2023-04-28T13:56:44;9.48;;;5.70;;
73850;SDS011;62190;51.548;5.688;2023-04-28T13:59:12;7.83;;;6.25;;
73850;SDS011;62190;51.548;5.688;2023-04-28T14:01:39;7.83;;;5.25;;
73850;SDS011;62190;51.548;5.688;2023-04-28T14:04:06;7.25;;;5.35;;
73850;SDS011;62190;51.548;5.688;2023-04-28T14:06:34;5.75;;;4.47;;
73850;SDS011;62190;51.548;5.688;2023-04-28T14:09:01;5.60;;;4.28;;
73850;SDS011;62190;51.548;5.688;2023-04-28T14:11:29;5.50;;;4.40;;
73850;SDS011;62190;51.548;5.688;2023-04-28T14:13:56;5.90;;;4.60;;
73850;SDS011;62190;51.548;5.688;2023-04-28T14:16:23;6.75;;;5.20;;
73850;SDS011;62190;51.548;5.688;2023-04-28T14:18:52;6.20;;;4.40;;
73850;SDS011;62190;51.548;5.688;2023-04-28T14:21:20;7.12;;;5.42;;
73850;SDS011;62190;51.548;5.688;2023-04-28T14:23:47;6.12;;;4.87;;
73850;SDS011;62190;51.548;5.688;2023-04-28T14:26:14;5.53;;;4.60;;
73850;SDS011;62190;51.548;5.688;2023-04-28T14:28:41;6.40;;;5.47;;
73850;SDS011;62190;51.548;5.688;2023-04-28T14:31:09;5.33;;;4.00;;
73850;SDS011;62190;51.548;5.688;2023-04-28T14:33:36;5.75;;;4.37;;
73850;SDS011;62190;51.548;5.688;2023-04-28T14:36:03;5.72;;;4.42;;
73850;SDS011;62190;51.548;5.688;2023-04-28T14:38:31;4.15;;;3.12;;
73850;SDS011;62190;51.548;5.688;2023-04-28T14:40:58;5.62;;;3.70;;
73850;SDS011;62190;51.548;5.688;2023-04-28T14:43:25;4.08;;;3.67;;
73850;SDS011;62190;51.548;5.688;2023-04-28T14:45:53;4.08;;;3.67;;
73850;SDS011;62190;51.548;5.688;2023-04-28T14:48:20;5.37;;;4.40;;
73850;SDS011;62190;51.548;5.688;2023-04-28T14:50:48;5.03;;;4.53;;
73850;SDS011;62190;51.548;5.688;2023-04-28T14:53:16;5.15;;;4.00;;
73850;SDS011;62190;51.548;5.688;2023-04-28T14:55:43;5.85;;;4.37;;
73850;SDS011;62190;51.548;5.688;2023-04-28T14:58:10;5.87;;;4.90;;
73850;SDS011;62190;51.548;5.688;2023-04-28T15:00:38;6.22;;;4.40;;
73850;SDS011;62190;51.548;5.688;2023-04-28T15:03:06;6.37;;;4.42;;
73850;SDS011;62190;51.548;5.688;2023-04-28T15:05:33;6.53;;;4.40;;
73850;SDS011;62190;51.548;5.688;2023-04-28T15:08:00;4.62;;;4.05;;
73850;SDS011;62190;51.548;5.688;2023-04-28T15:10:30;7.15;;;4.95;;